sensor_id;sensor_type;location;lat;lon;timestamp;pressure;altitude;pressure_sealevel;temperature;humidity
19759;BME280;10038;42.662;23.278;2022-09-13T00:01:02;72245.59;;;14.28;87.58
19759;BME280;10038;42.662;23.278;2022-09-13T00:03:29;72229.97;;;14.14;87.75
19759;BME280;10038;42.662;23.278;2022-09-13T00:05:56;72299.19;;;14.70;86.70
19759;BME280;10038;42.662;23.278;2022-09-13T00:08:25;72299.19;;;14.70;87.11
19759;BME280;10038;42.662;23.278;2022-09-13T00:10:52;72297.22;;;14.73;86.40
19759;BME280;10038;42.662;23.278;2022-09-13T00:13:18;72306.47;;;14.81;86.43
19759;BME280;10038;42.662;23.278;2022-09-13T00:15:47;72316.34;;;14.90;86.14
19759;BME280;10038;42.662;23.278;2022-09-13T00:18:15;72327.22;;;14.97;86.07
19759;BME280;10038;42.662;23.278;2022-09-13T00:20:42;72337.28;;;15.01;85.41
19759;BME280;10038;42.662;23.278;2022-09-13T00:23:09;72332.84;;;14.99;85.74
19759;BME280;10038;42.662;23.278;2022-09-13T00:25:38;72332.00;;;15.03;85.28
19759;BME280;10038;42.662;23.278;2022-09-13T00:28:05;72336.22;;;15.09;85.38
19759;BME280;10038;42.662;23.278;2022-09-13T00:30:32;72330.28;;;15.02;85.50
19759;BME280;10038;42.662;23.278;2022-09-13T00:32:59;72340.13;;;15.10;84.96
19759;BME280;10038;42.662;23.278;2022-09-13T00:35:28;72338.97;;;15.09;85.22
19759;BME280;10038;42.662;23.278;2022-09-13T00:37:55;72350.00;;;15.19;84.92
19759;BME280;10038;42.662;23.278;2022-09-13T00:40:24;72349.81;;;15.16;84.72
19759;BME280;10038;42.662;23.278;2022-09-13T00:42:52;72343.19;;;15.15;84.84
19759;BME280;10038;42.662;23.278;2022-09-13T00:45:19;72343.19;;;15.15;84.68
19759;BME280;10038;42.662;23.278;2022-09-13T00:47:48;72349.81;;;15.16;84.58
19759;BME280;10038;42.662;23.278;2022-09-13T00:50:20;72315.00;;;14.86;84.45
19759;BME280;10038;42.662;23.278;2022-09-13T00:52:54;72355.22;;;15.23;84.68
19759;BME280;10038;42.662;23.278;2022-09-13T00:55:28;72352.63;;;15.26;84.54
19759;BME280;10038;42.662;23.278;2022-09-13T00:57:59;72356.78;;;15.22;84.21
19759;BME280;10038;42.662;23.278;2022-09-13T01:00:27;72355.47;;;15.19;84.67
19759;BME280;10038;42.662;23.278;2022-09-13T01:02:56;72343.63;;;15.13;84.79
19759;BME280;10038;42.662;23.278;2022-09-13T01:05:26;72345.94;;;15.15;84.82
19759;BME280;10038;42.662;23.278;2022-09-13T01:07:56;72348.25;;;15.17;84.53
19759;BME280;10038;42.662;23.278;2022-09-13T01:10:24;72344.75;;;15.14;84.74
19759;BME280;10038;42.662;23.278;2022-09-13T01:12:54;72348.66;;;15.15;84.16
19759;BME280;10038;42.662;23.278;2022-09-13T01:15:24;72351.72;;;15.20;84.23
19759;BME280;10038;42.662;23.278;2022-09-13T01:17:51;72348.81;;;15.18;84.49
19759;BME280;10038;42.662;23.278;2022-09-13T01:20:24;72344.19;;;15.14;84.61
19759;BME280;10038;42.662;23.278;2022-09-13T01:23:22;72343.38;;;15.18;84.37
19759;BME280;10038;42.662;23.278;2022-09-13T01:26:32;72345.19;;;15.12;84.67
19759;BME280;10038;42.662;23.278;2022-09-13T01:29:20;72345.34;;;15.15;84.98
19759;BME280;10038;42.662;23.278;2022-09-13T01:31:59;72345.94;;;15.15;84.92
19759;BME280;10038;42.662;23.278;2022-09-13T01:34:41;72344.75;;;15.14;84.59
19759;BME280;10038;42.662;23.278;2022-09-13T01:37:26;72306.47;;;14.81;85.10
19759;BME280;10038;42.662;23.278;2022-09-13T01:40:03;72341.06;;;15.16;84.77
19759;BME280;10038;42.662;23.278;2022-09-13T01:42:42;72340.53;;;15.08;84.79
19759;BME280;10038;42.662;23.278;2022-09-13T01:45:21;72349.06;;;15.13;85.37
19759;BME280;10038;42.662;23.278;2022-09-13T01:47:56;72340.13;;;15.10;85.01
19759;BME280;10038;42.662;23.278;2022-09-13T01:50:39;72342.69;;;15.08;85.52
19759;BME280;10038;42.662;23.278;2022-09-13T01:53:16;72335.16;;;15.01;85.26
19759;BME280;10038;42.662;23.278;2022-09-13T01:55:49;72340.94;;;15.06;85.46
19759;BME280;10038;42.662;23.278;2022-09-13T01:58:22;72327.72;;;15.04;85.98
19759;BME280;10038;42.662;23.278;2022-09-13T02:00:55;72344.00;;;15.11;85.69
19759;BME280;10038;42.662;23.278;2022-09-13T02:03:32;72354.47;;;15.20;84.64
19759;BME280;10038;42.662;23.278;2022-09-13T02:06:05;72347.06;;;15.16;84.88
19759;BME280;10038;42.662;23.278;2022-09-13T02:08:37;72347.50;;;15.14;84.86
19759;BME280;10038;42.662;23.278;2022-09-13T02:11:08;72339.78;;;15.05;85.47
19759;BME280;10038;42.662;23.278;2022-09-13T02:13:40;72324.22;;;15.01;85.31
19759;BME280;10038;42.662;23.278;2022-09-13T02:16:14;72316.94;;;14.90;85.68
19759;BME280;10038;42.662;23.278;2022-09-13T02:18:46;72318.09;;;14.91;85.87
19759;BME280;10038;42.662;23.278;2022-09-13T02:21:17;72315.75;;;14.89;85.86
19759;BME280;10038;42.662;23.278;2022-09-13T02:23:49;72318.50;;;14.89;85.74
19759;BME280;10038;42.662;23.278;2022-09-13T02:26:18;72311.13;;;14.85;85.91
19759;BME280;10038;42.662;23.278;2022-09-13T02:28:50;72301.09;;;14.74;86.39
19759;BME280;10038;42.662;23.278;2022-09-13T02:31:20;72288.50;;;14.65;86.60
19759;BME280;10038;42.662;23.278;2022-09-13T02:33:54;72286.44;;;14.59;87.29
19759;BME280;10038;42.662;23.278;2022-09-13T02:36:26;72284.44;;;14.62;87.17
19759;BME280;10038;42.662;23.278;2022-09-13T02:38:56;72283.31;;;14.61;87.24
19759;BME280;10038;42.662;23.278;2022-09-13T02:41:29;72274.03;;;14.53;87.63
19759;BME280;10038;42.662;23.278;2022-09-13T02:44:05;72270.56;;;14.50;87.41
19759;BME280;10038;42.662;23.278;2022-09-13T02:46:42;72256.63;;;14.38;87.80
19759;BME280;10038;42.662;23.278;2022-09-13T02:49:21;72254.31;;;14.36;88.24
19759;BME280;10038;42.662;23.278;2022-09-13T02:51:54;72249.31;;;14.27;88.51
19759;BME280;10038;42.662;23.278;2022-09-13T02:54:27;72254.72;;;14.34;88.82
19759;BME280;10038;42.662;23.278;2022-09-13T02:56:58;72255.47;;;14.37;88.59
19759;BME280;10038;42.662;23.278;2022-09-13T02:59:27;72247.34;;;14.30;88.31
19759;BME280;10038;42.662;23.278;2022-09-13T03:01:58;72250.06;;;14.30;88.50
19759;BME280;10038;42.662;23.278;2022-09-13T03:04:28;72239.78;;;14.23;88.92
19759;BME280;10038;42.662;23.278;2022-09-13T03:06:55;72232.69;;;14.14;89.21
19759;BME280;10038;42.662;23.278;2022-09-13T03:09:21;72221.84;;;14.07;89.52
19759;BME280;10038;42.662;23.278;2022-09-13T03:11:56;72223.16;;;14.11;89.68
19759;BME280;10038;42.662;23.278;2022-09-13T03:14:36;72226.31;;;14.09;89.85
19759;BME280;10038;42.662;23.278;2022-09-13T03:17:13;72223.59;;;14.09;89.32
19759;BME280;10038;42.662;23.278;2022-09-13T03:19:55;72227.28;;;14.07;89.44
19759;BME280;10038;42.662;23.278;2022-09-13T03:22:52;72226.47;;;14.11;88.75
19759;BME280;10038;42.662;23.278;2022-09-13T03:25:30;72227.63;;;14.12;87.87
19759;BME280;10038;42.662;23.278;2022-09-13T03:28:09;72235.34;;;14.22;86.90
19759;BME280;10038;42.662;23.278;2022-09-13T03:30:46;72243.84;;;14.27;86.81
19759;BME280;10038;42.662;23.278;2022-09-13T03:33:19;72238.06;;;14.22;86.96
19759;BME280;10038;42.662;23.278;2022-09-13T03:35:53;72228.38;;;14.15;87.23
19759;BME280;10038;42.662;23.278;2022-09-13T03:38:26;72231.53;;;14.13;86.80
19759;BME280;10038;42.662;23.278;2022-09-13T03:40:59;72208.75;;;13.91;87.00
19759;BME280;10038;42.662;23.278;2022-09-13T03:43:32;72224.16;;;14.09;87.45
19759;BME280;10038;42.662;23.278;2022-09-13T03:46:03;72209.66;;;13.97;87.86
19759;BME280;10038;42.662;23.278;2022-09-13T03:48:33;72194.03;;;13.83;87.68
19759;BME280;10038;42.662;23.278;2022-09-13T03:51:03;72187.81;;;13.80;87.80
19759;BME280;10038;42.662;23.278;2022-09-13T03:53:33;72191.72;;;13.81;87.65
19759;BME280;10038;42.662;23.278;2022-09-13T03:56:11;72204.09;;;13.87;87.21
19759;BME280;10038;42.662;23.278;2022-09-13T03:58:37;72189.38;;;13.79;87.21
19759;BME280;10038;42.662;23.278;2022-09-13T04:01:04;72185.91;;;13.76;87.05
19759;BME280;10038;42.662;23.278;2022-09-13T04:03:31;72189.22;;;13.77;86.42
19759;BME280;10038;42.662;23.278;2022-09-13T04:05:58;72188.81;;;13.79;86.87
19759;BME280;10038;42.662;23.278;2022-09-13T04:08:26;72188.22;;;13.78;86.84
19759;BME280;10038;42.662;23.278;2022-09-13T04:10:52;72181.28;;;13.72;86.69
19759;BME280;10038;42.662;23.278;2022-09-13T04:13:19;72181.69;;;13.70;87.03
19759;BME280;10038;42.662;23.278;2022-09-13T04:15:46;72136.66;;;13.33;87.21
19759;BME280;10038;42.662;23.278;2022-09-13T04:18:13;72177.03;;;13.66;87.23
19759;BME280;10038;42.662;23.278;2022-09-13T04:20:40;72178.38;;;13.70;87.41
19759;BME280;10038;42.662;23.278;2022-09-13T04:23:07;72152.13;;;13.44;86.69
19759;BME280;10038;42.662;23.278;2022-09-13T04:25:37;72199.81;;;13.88;86.70
19759;BME280;10038;42.662;23.278;2022-09-13T04:28:04;72194.44;;;13.81;86.49
19759;BME280;10038;42.662;23.278;2022-09-13T04:30:31;72185.34;;;13.76;87.05
19759;BME280;10038;42.662;23.278;2022-09-13T04:32:58;72182.44;;;13.73;87.33
19759;BME280;10038;42.662;23.278;2022-09-13T04:35:25;72181.09;;;13.70;87.38
19759;BME280;10038;42.662;23.278;2022-09-13T04:37:54;72174.31;;;13.66;88.17
19759;BME280;10038;42.662;23.278;2022-09-13T04:40:21;72181.28;;;13.72;88.43
19759;BME280;10038;42.662;23.278;2022-09-13T04:42:49;72192.28;;;13.82;87.42
19759;BME280;10038;42.662;23.278;2022-09-13T04:45:16;72201.56;;;13.90;87.38
19759;BME280;10038;42.662;23.278;2022-09-13T04:47:43;72198.66;;;13.87;87.79
19759;BME280;10038;42.662;23.278;2022-09-13T04:50:09;72196.00;;;13.80;87.30
19759;BME280;10038;42.662;23.278;2022-09-13T04:52:36;72186.25;;;13.81;86.69
19759;BME280;10038;42.662;23.278;2022-09-13T04:55:04;72212.22;;;13.94;85.99
19759;BME280;10038;42.662;23.278;2022-09-13T04:57:31;72241.59;;;14.17;84.35
19759;BME280;10038;42.662;23.278;2022-09-13T05:00:00;72229.97;;;14.14;84.11
19759;BME280;10038;42.662;23.278;2022-09-13T05:02:27;72257.81;;;14.39;82.79
19759;BME280;10038;42.662;23.278;2022-09-13T05:04:54;72290.66;;;14.65;83.07
19759;BME280;10038;42.662;23.278;2022-09-13T05:07:20;72316.94;;;14.90;81.71
19759;BME280;10038;42.662;23.278;2022-09-13T05:09:47;72344.19;;;15.14;80.56
19759;BME280;10038;42.662;23.278;2022-09-13T05:12:14;72373.34;;;15.42;79.88
19759;BME280;10038;42.662;23.278;2022-09-13T05:14:40;72407.25;;;15.66;78.55
19759;BME280;10038;42.662;23.278;2022-09-13T05:17:09;72416.31;;;15.79;78.88
19759;BME280;10038;42.662;23.278;2022-09-13T05:19:35;72433.56;;;15.91;77.77
19759;BME280;10038;42.662;23.278;2022-09-13T05:22:03;72459.50;;;16.12;76.58
19759;BME280;10038;42.662;23.278;2022-09-13T05:24:30;72463.16;;;16.17;75.09
19759;BME280;10038;42.662;23.278;2022-09-13T05:26:57;72469.53;;;16.23;74.22
19759;BME280;10038;42.662;23.278;2022-09-13T05:29:24;72475.94;;;16.28;74.26
19759;BME280;10038;42.662;23.278;2022-09-13T05:31:51;72468.53;;;16.24;73.49
19759;BME280;10038;42.662;23.278;2022-09-13T05:34:19;72472.44;;;16.25;73.76
19759;BME280;10038;42.662;23.278;2022-09-13T05:36:46;72496.81;;;16.46;73.29
19759;BME280;10038;42.662;23.278;2022-09-13T05:39:15;72511.94;;;16.60;72.91
19759;BME280;10038;42.662;23.278;2022-09-13T05:41:43;72509.34;;;16.62;72.83
19759;BME280;10038;42.662;23.278;2022-09-13T05:44:10;72509.19;;;16.60;72.26
19759;BME280;10038;42.662;23.278;2022-09-13T05:46:36;72515.00;;;16.65;72.04
19759;BME280;10038;42.662;23.278;2022-09-13T05:49:03;72475.34;;;16.28;72.30
19759;BME280;10038;42.662;23.278;2022-09-13T05:51:31;72479.41;;;16.31;72.86
19759;BME280;10038;42.662;23.278;2022-09-13T05:53:58;72466.06;;;16.20;73.19
19759;BME280;10038;42.662;23.278;2022-09-13T05:56:27;72409.19;;;15.70;73.89
19759;BME280;10038;42.662;23.278;2022-09-13T05:58:55;72483.47;;;16.35;74.47
19759;BME280;10038;42.662;23.278;2022-09-13T06:01:23;72464.72;;;16.16;74.19
19759;BME280;10038;42.662;23.278;2022-09-13T06:03:51;72445.31;;;16.04;73.74
19759;BME280;10038;42.662;23.278;2022-09-13T06:06:19;72442.84;;;16.00;74.65
19759;BME280;10038;42.662;23.278;2022-09-13T06:08:51;72394.09;;;15.57;73.51
19759;BME280;10038;42.662;23.278;2022-09-13T06:11:18;72441.09;;;15.98;74.09
19759;BME280;10038;42.662;23.278;2022-09-13T06:13:45;72440.84;;;16.03;73.51
19759;BME280;10038;42.662;23.278;2022-09-13T06:16:12;72472.03;;;16.27;72.58
19759;BME280;10038;42.662;23.278;2022-09-13T06:18:40;72683.44;;;18.18;67.20
19759;BME280;10038;42.662;23.278;2022-09-13T06:21:09;72898.09;;;20.04;59.94
19759;BME280;10038;42.662;23.278;2022-09-13T06:23:36;73100.25;;;21.79;54.70
19759;BME280;10038;42.662;23.278;2022-09-13T06:26:06;73117.19;;;21.94;52.89
19759;BME280;10038;42.662;23.278;2022-09-13T06:28:34;73178.41;;;22.47;51.56
19759;BME280;10038;42.662;23.278;2022-09-13T06:31:02;73193.56;;;22.60;50.04
19759;BME280;10038;42.662;23.278;2022-09-13T06:33:30;73239.66;;;23.00;49.66
19759;BME280;10038;42.662;23.278;2022-09-13T06:36:02;73388.50;;;24.28;46.12
19759;BME280;10038;42.662;23.278;2022-09-13T06:38:29;73406.78;;;24.46;44.88
19759;BME280;10038;42.662;23.278;2022-09-13T06:41:01;73493.66;;;25.19;43.50
19759;BME280;10038;42.662;23.278;2022-09-13T06:43:30;73358.13;;;24.02;45.27
19759;BME280;10038;42.662;23.278;2022-09-13T06:46:00;73288.09;;;23.41;46.60
19759;BME280;10038;42.662;23.278;2022-09-13T06:48:30;73402.53;;;24.40;44.26
19759;BME280;10038;42.662;23.278;2022-09-13T06:50:57;73441.66;;;24.74;43.72
19759;BME280;10038;42.662;23.278;2022-09-13T06:53:24;73684.47;;;26.86;39.84
19759;BME280;10038;42.662;23.278;2022-09-13T06:55:59;73796.22;;;27.82;37.59
19759;BME280;10038;42.662;23.278;2022-09-13T06:58:28;73806.31;;;27.93;37.81
19759;BME280;10038;42.662;23.278;2022-09-13T07:01:06;73731.69;;;27.24;38.34
19759;BME280;10038;42.662;23.278;2022-09-13T07:03:35;73802.06;;;27.87;36.79
19759;BME280;10038;42.662;23.278;2022-09-13T07:06:06;73899.28;;;28.71;35.18
19759;BME280;10038;42.662;23.278;2022-09-13T07:08:33;73861.94;;;28.41;35.96
19759;BME280;10038;42.662;23.278;2022-09-13T07:11:00;73894.63;;;28.67;35.05
19759;BME280;10038;42.662;23.278;2022-09-13T07:13:27;74030.09;;;29.86;33.16
19759;BME280;10038;42.662;23.278;2022-09-13T07:15:54;74242.91;;;31.67;30.53
19759;BME280;10038;42.662;23.278;2022-09-13T07:18:23;74072.88;;;30.23;31.22
19759;BME280;10038;42.662;23.278;2022-09-13T07:20:49;74050.63;;;30.04;31.47
19759;BME280;10038;42.662;23.278;2022-09-13T07:23:16;73825.50;;;28.07;35.13
19759;BME280;10038;42.662;23.278;2022-09-13T07:25:43;73764.03;;;27.55;36.13
19759;BME280;10038;42.662;23.278;2022-09-13T07:28:09;73971.97;;;29.34;33.23
19759;BME280;10038;42.662;23.278;2022-09-13T07:30:36;74014.84;;;29.73;32.99
19759;BME280;10038;42.662;23.278;2022-09-13T07:33:03;74280.00;;;32.01;29.82
19759;BME280;10038;42.662;23.278;2022-09-13T07:35:31;74044.16;;;29.98;31.60
19759;BME280;10038;42.662;23.278;2022-09-13T07:37:58;73998.44;;;29.59;32.68
19759;BME280;10038;42.662;23.278;2022-09-13T07:40:25;74008.25;;;29.65;31.70
19759;BME280;10038;42.662;23.278;2022-09-13T07:42:51;74056.47;;;30.09;31.56
19759;BME280;10038;42.662;23.278;2022-09-13T07:45:18;74067.03;;;30.18;30.50
19759;BME280;10038;42.662;23.278;2022-09-13T07:47:45;74082.84;;;30.31;31.32
19759;BME280;10038;42.662;23.278;2022-09-13T07:50:13;74112.19;;;30.57;30.61
19759;BME280;10038;42.662;23.278;2022-09-13T07:52:41;74245.34;;;31.71;29.18
19759;BME280;10038;42.662;23.278;2022-09-13T07:55:08;74106.34;;;30.52;30.11
19759;BME280;10038;42.662;23.278;2022-09-13T07:57:35;73833.69;;;28.15;33.59
19759;BME280;10038;42.662;23.278;2022-09-13T08:00:02;73980.28;;;29.43;31.27
19759;BME280;10038;42.662;23.278;2022-09-13T08:02:29;73753.94;;;27.43;34.41
19759;BME280;10038;42.662;23.278;2022-09-13T08:04:56;73576.66;;;25.91;36.81
19759;BME280;10038;42.662;23.278;2022-09-13T08:07:23;73450.00;;;24.84;39.03
19759;BME280;10038;42.662;23.278;2022-09-13T08:09:51;73619.97;;;26.28;36.69
19759;BME280;10038;42.662;23.278;2022-09-13T08:12:20;73515.88;;;25.38;37.66
19759;BME280;10038;42.662;23.278;2022-09-13T08:14:47;73545.84;;;25.66;37.68
19759;BME280;10038;42.662;23.278;2022-09-13T08:17:14;73469.13;;;24.98;39.24
19759;BME280;10038;42.662;23.278;2022-09-13T08:19:40;73407.78;;;24.45;41.06
19759;BME280;10038;42.662;23.278;2022-09-13T08:22:07;73369.28;;;24.12;41.26
19759;BME280;10038;42.662;23.278;2022-09-13T08:24:34;73262.41;;;23.19;41.79
19759;BME280;10038;42.662;23.278;2022-09-13T08:27:03;73357.84;;;23.97;40.84
19759;BME280;10038;42.662;23.278;2022-09-13T08:29:30;73793.88;;;27.80;34.54
19759;BME280;10038;42.662;23.278;2022-09-13T08:31:56;74064.69;;;30.16;30.36
19759;BME280;10038;42.662;23.278;2022-09-13T08:34:23;74047.69;;;30.01;29.89
19759;BME280;10038;42.662;23.278;2022-09-13T08:36:50;73641.72;;;26.49;35.11
19759;BME280;10038;42.662;23.278;2022-09-13T08:39:16;73895.34;;;28.70;32.35
19759;BME280;10038;42.662;23.278;2022-09-13T08:44:52;74171.44;;;31.08;28.24
19759;BME280;10038;42.662;23.278;2022-09-13T08:47:31;73921.66;;;28.93;30.44
19759;BME280;10038;42.662;23.278;2022-09-13T08:50:05;73816.25;;;28.02;33.59
19759;BME280;10038;42.662;23.278;2022-09-13T08:52:44;73949.69;;;29.14;30.52
19759;BME280;10038;42.662;23.278;2022-09-13T08:55:22;74291.16;;;32.10;27.67
19759;BME280;10038;42.662;23.278;2022-09-13T08:57:54;74493.78;;;33.84;24.31
19759;BME280;10038;42.662;23.278;2022-09-13T09:00:30;74479.34;;;33.77;24.20
19759;BME280;10038;42.662;23.278;2022-09-13T09:03:14;74423.97;;;33.27;24.74
19759;BME280;10038;42.662;23.278;2022-09-13T09:05:46;74278.81;;;32.00;26.00
19759;BME280;10038;42.662;23.278;2022-09-13T09:08:24;74435.03;;;33.34;24.29
19759;BME280;10038;42.662;23.278;2022-09-13T09:10:54;74550.81;;;34.33;23.36
19759;BME280;10038;42.662;23.278;2022-09-13T09:13:27;74649.22;;;35.23;22.72
19759;BME280;10038;42.662;23.278;2022-09-13T09:15:59;74550.22;;;34.33;22.62
19759;BME280;10038;42.662;23.278;2022-09-13T09:18:31;74645.47;;;35.15;21.80
19759;BME280;10038;42.662;23.278;2022-09-13T09:21:00;74344.59;;;32.56;24.75
19759;BME280;10038;42.662;23.278;2022-09-13T09:23:30;74174.34;;;31.10;26.82
19759;BME280;10038;42.662;23.278;2022-09-13T09:26:13;73800.16;;;27.83;30.54
19759;BME280;10038;42.662;23.278;2022-09-13T09:28:41;73674.06;;;26.79;31.91
19759;BME280;10038;42.662;23.278;2022-09-13T09:31:13;73836.03;;;28.17;30.66
19759;BME280;10038;42.662;23.278;2022-09-13T09:33:55;73918.75;;;28.90;29.01
19759;BME280;10038;42.662;23.278;2022-09-13T09:36:29;74240.22;;;31.69;25.39
19759;BME280;10038;42.662;23.278;2022-09-13T09:39:02;74411.41;;;33.11;23.81
19759;BME280;10038;42.662;23.278;2022-09-13T09:41:30;74220.13;;;31.49;25.78
19759;BME280;10038;42.662;23.278;2022-09-13T09:44:03;73793.44;;;27.82;29.91
19759;BME280;10038;42.662;23.278;2022-09-13T09:46:39;73588.38;;;26.01;32.69
19759;BME280;10038;42.662;23.278;2022-09-13T09:49:14;73835.44;;;28.16;31.69
19759;BME280;10038;42.662;23.278;2022-09-13T09:51:56;73939.13;;;29.05;29.29
19759;BME280;10038;42.662;23.278;2022-09-13T09:54:26;73818.63;;;28.04;31.46
19759;BME280;10038;42.662;23.278;2022-09-13T09:56:54;73726.00;;;27.22;32.28
19759;BME280;10038;42.662;23.278;2022-09-13T09:59:31;73497.16;;;25.22;35.08
19759;BME280;10038;42.662;23.278;2022-09-13T10:02:00;73486.94;;;25.08;35.77
19759;BME280;10038;42.662;23.278;2022-09-13T10:04:32;73410.28;;;24.49;36.99
19759;BME280;10038;42.662;23.278;2022-09-13T10:07:23;73633.56;;;26.42;33.74
19759;BME280;10038;42.662;23.278;2022-09-13T10:09:57;73644.78;;;26.54;32.73
19759;BME280;10038;42.662;23.278;2022-09-13T10:12:26;73868.25;;;28.44;30.28
19759;BME280;10038;42.662;23.278;2022-09-13T10:15:03;74081.69;;;30.30;27.42
19759;BME280;10038;42.662;23.278;2022-09-13T10:17:31;73983.22;;;29.46;27.49
19759;BME280;10038;42.662;23.278;2022-09-13T10:19:59;73732.84;;;27.25;30.50
19759;BME280;10038;42.662;23.278;2022-09-13T10:22:29;73678.03;;;26.80;31.62
19759;BME280;10038;42.662;23.278;2022-09-13T10:25:13;74099.28;;;30.46;27.23
19759;BME280;10038;42.662;23.278;2022-09-13T10:27:42;74382.16;;;32.89;25.28
19759;BME280;10038;42.662;23.278;2022-09-13T10:30:29;74356.31;;;32.66;24.47
19759;BME280;10038;42.662;23.278;2022-09-13T10:32:58;74042.41;;;29.97;26.83
19759;BME280;10038;42.662;23.278;2022-09-13T10:35:26;74067.03;;;30.18;27.49
19759;BME280;10038;42.662;23.278;2022-09-13T10:37:53;73968.44;;;29.31;28.56
19759;BME280;10038;42.662;23.278;2022-09-13T10:40:25;73732.28;;;27.25;31.65
19759;BME280;10038;42.662;23.278;2022-09-13T10:42:54;73838.56;;;28.12;30.56
19759;BME280;10038;42.662;23.278;2022-09-13T10:45:23;74002.41;;;29.60;28.84
19759;BME280;10038;42.662;23.278;2022-09-13T10:47:52;74281.19;;;32.02;25.80
19759;BME280;10038;42.662;23.278;2022-09-13T10:50:22;74455.00;;;33.51;24.67
19759;BME280;10038;42.662;23.278;2022-09-13T10:52:51;74153.25;;;30.92;25.71
19759;BME280;10038;42.662;23.278;2022-09-13T10:55:34;74263.53;;;31.87;25.50
19759;BME280;10038;42.662;23.278;2022-09-13T10:58:17;74408.00;;;33.11;24.26
19759;BME280;10038;42.662;23.278;2022-09-13T11:06:41;73973.84;;;29.38;28.09
19759;BME280;10038;42.662;23.278;2022-09-13T11:09:15;73753.94;;;27.43;30.39
19759;BME280;10038;42.662;23.278;2022-09-13T11:11:48;73918.75;;;28.90;28.72
19759;BME280;10038;42.662;23.278;2022-09-13T11:14:30;74204.88;;;31.36;25.96
19759;BME280;10038;42.662;23.278;2022-09-13T11:17:05;74272.34;;;31.94;24.83
19759;BME280;10038;42.662;23.278;2022-09-13T11:20:00;74198.28;;;31.28;24.90
19759;BME280;10038;42.662;23.278;2022-09-13T11:25:35;74183.75;;;31.18;25.22
19759;BME280;10038;42.662;23.278;2022-09-13T11:28:15;73974.75;;;29.34;27.21
19759;BME280;10038;42.662;23.278;2022-09-13T11:31:04;73996.56;;;29.55;26.70
19759;BME280;10038;42.662;23.278;2022-09-13T11:33:42;74296.91;;;32.13;24.40
19759;BME280;10038;42.662;23.278;2022-09-13T11:39:14;74226.00;;;31.54;25.13
19759;BME280;10038;42.662;23.278;2022-09-13T11:41:53;74058.69;;;30.08;27.15
19759;BME280;10038;42.662;23.278;2022-09-13T11:44:45;74111.59;;;30.56;26.48
19759;BME280;10038;42.662;23.278;2022-09-13T11:47:22;74215.41;;;31.45;24.92
19759;BME280;10038;42.662;23.278;2022-09-13T11:50:01;74423.25;;;33.24;23.34
19759;BME280;10038;42.662;23.278;2022-09-13T11:52:41;74179.06;;;31.14;25.31
19759;BME280;10038;42.662;23.278;2022-09-13T11:55:25;74415.06;;;33.17;24.16
19759;BME280;10038;42.662;23.278;2022-09-13T11:57:55;74436.19;;;33.35;22.60
19759;BME280;10038;42.662;23.278;2022-09-13T12:00:26;74283.53;;;32.04;24.17
19759;BME280;10038;42.662;23.278;2022-09-13T12:03:00;74157.81;;;30.93;25.17
19759;BME280;10038;42.662;23.278;2022-09-13T12:05:31;74282.94;;;32.03;24.63
19759;BME280;10038;42.662;23.278;2022-09-13T12:08:02;74395.19;;;33.02;24.57
19759;BME280;10038;42.662;23.278;2022-09-13T12:10:37;74338.69;;;32.51;24.63
19759;BME280;10038;42.662;23.278;2022-09-13T12:13:09;74346.91;;;32.58;24.97
19759;BME280;10038;42.662;23.278;2022-09-13T12:15:40;74174.81;;;31.08;24.77
19759;BME280;10038;42.662;23.278;2022-09-13T12:18:12;74294.09;;;32.13;24.47
19759;BME280;10038;42.662;23.278;2022-09-13T12:20:45;74208.84;;;31.37;25.00
19759;BME280;10038;42.662;23.278;2022-09-13T12:23:16;74040.53;;;29.93;26.22
19759;BME280;10038;42.662;23.278;2022-09-13T12:25:50;74001.94;;;29.62;26.52
19759;BME280;10038;42.662;23.278;2022-09-13T12:28:23;74164.97;;;31.02;25.38
19759;BME280;10038;42.662;23.278;2022-09-13T12:30:55;74003.47;;;29.58;27.27
19759;BME280;10038;42.662;23.278;2022-09-13T12:33:22;73675.50;;;26.76;30.96
19759;BME280;10038;42.662;23.278;2022-09-13T12:36:21;73775.59;;;27.62;29.52
19759;BME280;10038;42.662;23.278;2022-09-13T12:39:28;73956.69;;;29.20;28.13
19759;BME280;10038;42.662;23.278;2022-09-13T12:42:21;74041.56;;;29.91;27.81
19759;BME280;10038;42.662;23.278;2022-09-13T12:45:05;73692.50;;;26.90;31.18
19759;BME280;10038;42.662;23.278;2022-09-13T12:48:16;73541.59;;;25.60;33.57
19759;BME280;10038;42.662;23.278;2022-09-13T12:51:06;73729.94;;;27.23;30.89
19759;BME280;10038;42.662;23.278;2022-09-13T12:56:41;73949.69;;;29.14;28.96
19759;BME280;10038;42.662;23.278;2022-09-13T12:59:31;73963.03;;;29.23;29.09
19759;BME280;10038;42.662;23.278;2022-09-13T13:02:02;73900.94;;;28.70;29.21
19759;BME280;10038;42.662;23.278;2022-09-13T13:04:32;73962.56;;;29.25;28.34
19759;BME280;10038;42.662;23.278;2022-09-13T13:07:02;74028.22;;;29.82;27.32
19759;BME280;10038;42.662;23.278;2022-09-13T13:09:35;73809.81;;;27.96;29.19
19759;BME280;10038;42.662;23.278;2022-09-13T13:12:05;73835.59;;;28.19;29.85
19759;BME280;10038;42.662;23.278;2022-09-13T13:14:46;73666.16;;;26.68;32.38
19759;BME280;10038;42.662;23.278;2022-09-13T13:17:35;73513.53;;;25.36;34.61
19759;BME280;10038;42.662;23.278;2022-09-13T13:23:12;73426.50;;;24.61;35.95
19759;BME280;10038;42.662;23.278;2022-09-13T13:25:54;73522.88;;;25.44;34.09
19759;BME280;10038;42.662;23.278;2022-09-13T13:31:43;73547.16;;;25.60;33.67
19759;BME280;10038;42.662;23.278;2022-09-13T13:34:39;73415.09;;;24.46;35.25
19759;BME280;10038;42.662;23.278;2022-09-13T13:37:25;73369.53;;;24.07;36.50
19759;BME280;10038;42.662;23.278;2022-09-13T13:40:20;73306.78;;;23.58;38.57